createdAt,value
2022-07-25T00:01:08.713Z,99311.88
2022-07-25T00:03:40.555Z,99314.00
2022-07-25T00:06:17.808Z,99308.72
2022-07-25T00:08:49.423Z,99313.75
2022-07-25T00:11:19.388Z,99316.41
2022-07-25T00:13:49.851Z,99307.88
2022-07-25T00:16:20.397Z,99314.94
2022-07-25T00:18:50.560Z,99314.19
2022-07-25T00:21:20.526Z,99315.25
2022-07-25T00:23:51.942Z,99310.03
2022-07-25T00:26:22.009Z,99318.34
2022-07-25T00:28:52.248Z,99313.75
2022-07-25T00:31:22.311Z,99319.00
2022-07-25T00:33:52.301Z,99319.84
2022-07-25T00:36:22.530Z,99325.91
2022-07-25T00:38:53.926Z,99328.97
2022-07-25T00:41:24.050Z,99330.63
2022-07-25T00:43:54.129Z,99331.38
2022-07-25T00:46:24.532Z,99319.59
2022-07-25T00:48:54.509Z,99333.28
2022-07-25T00:51:24.639Z,99333.28
2022-07-25T00:53:57.040Z,99335.69
2022-07-25T00:56:27.623Z,99342.22
2022-07-25T00:58:57.762Z,99340.06
2022-07-25T01:01:27.875Z,99352.94
2022-07-25T01:03:58.114Z,99341.59
2022-07-25T01:06:28.606Z,99346.63
2022-07-25T01:09:00.307Z,99359.31
2022-07-25T01:11:30.271Z,99360.91
2022-07-25T01:14:00.776Z,99363.13
2022-07-25T01:16:31.196Z,99367.81
2022-07-25T01:19:02.334Z,99364.81
2022-07-25T01:21:33.693Z,99372.38
2022-07-25T01:24:03.983Z,99379.44
2022-07-25T01:26:34.345Z,99385.94
2022-07-25T01:29:04.470Z,99385.06
2022-07-25T01:31:34.487Z,99370.63
2022-07-25T01:34:04.779Z,99361.66
2022-07-25T01:36:36.636Z,99367.31
2022-07-25T01:39:06.698Z,99377.59
2022-07-25T01:41:36.685Z,99380.34
2022-07-25T01:44:07.163Z,99380.59
2022-07-25T01:46:38.514Z,99380.25
2022-07-25T01:49:08.625Z,99369.63
2022-07-25T01:51:40.005Z,99370.13
2022-07-25T01:54:10.486Z,99370.97
2022-07-25T01:56:47.089Z,99365.13
2022-07-25T01:59:18.458Z,99358.97
2022-07-25T02:01:48.570Z,99349.53
2022-07-25T02:04:18.593Z,99345.09
2022-07-25T02:06:50.122Z,99333.06
2022-07-25T02:09:19.964Z,99339.81
2022-07-25T02:11:50.593Z,99336.78
2022-07-25T02:14:20.888Z,99338.66
2022-07-25T02:16:51.379Z,99339.44
2022-07-25T02:19:21.331Z,99332.31
2022-07-25T02:21:52.834Z,99338.75
2022-07-25T02:24:22.822Z,99337.09
2022-07-25T02:26:53.013Z,99330.38
2022-07-25T02:29:23.079Z,99319.69
2022-07-25T02:31:53.197Z,99324.72
2022-07-25T02:34:23.163Z,99326.50
2022-07-25T02:36:54.530Z,99328.06
2022-07-25T02:39:25.438Z,99339.47
2022-07-25T02:41:55.387Z,99336.88
2022-07-25T02:44:25.563Z,99342.56
2022-07-25T02:46:55.497Z,99328.78
2022-07-25T02:49:25.468Z,99334.47
2022-07-25T02:51:57.676Z,99335.56
2022-07-25T02:54:27.803Z,99339.38
2022-07-25T02:56:57.802Z,99342.59
2022-07-25T02:59:32.386Z,99331.38
2022-07-25T03:02:02.430Z,99336.38
2022-07-25T03:04:32.422Z,99337.44
2022-07-25T03:07:03.840Z,99332.31
2022-07-25T03:09:33.780Z,99343.00
2022-07-25T03:12:04.694Z,99355.03
2022-07-25T03:14:35.181Z,99353.75
2022-07-25T03:17:05.410Z,99365.66
2022-07-25T03:19:35.518Z,99367.66
2022-07-25T03:22:06.813Z,99369.19
2022-07-25T03:24:36.816Z,99373.34
2022-07-25T03:27:06.955Z,99377.41
2022-07-25T03:29:37.035Z,99385.34
2022-07-25T03:32:08.219Z,99391.16
2022-07-25T03:34:38.765Z,99396.16
2022-07-25T03:37:10.077Z,99407.22
2022-07-25T03:39:40.954Z,99416.75
2022-07-25T03:42:11.815Z,99417.13
2022-07-25T03:44:41.707Z,99419.94
2022-07-25T03:47:11.672Z,99424.22
2022-07-25T03:49:50.672Z,99418.19
2022-07-25T03:52:21.959Z,99425.06
2022-07-25T03:54:51.875Z,99428.03
2022-07-25T03:57:21.858Z,99417.56
2022-07-25T03:59:51.713Z,99428.63
2022-07-25T04:02:21.666Z,99426.72
2022-07-25T04:04:51.753Z,99424.38
2022-07-25T04:07:23.244Z,99422.91
2022-07-25T04:09:53.180Z,99416.25
2022-07-25T04:12:23.911Z,99401.53
2022-07-25T04:14:54.275Z,99402.72
2022-07-25T04:17:25.296Z,99411.25
2022-07-25T04:19:55.772Z,99410.69
2022-07-25T04:22:28.097Z,99414.38
2022-07-25T04:24:57.992Z,99419.69
2022-07-25T04:27:28.076Z,99431.03
2022-07-25T04:29:58.977Z,99422.44
2022-07-25T04:32:29.055Z,99427.09
2022-07-25T04:34:58.925Z,99420.75
2022-07-25T04:37:30.611Z,99416.38
2022-07-25T04:40:00.441Z,99410.53
2022-07-25T04:42:30.582Z,99415.28
2022-07-25T04:45:00.524Z,99415.09
2022-07-25T04:47:30.578Z,99419.81
2022-07-25T04:50:01.286Z,99417.91
2022-07-25T04:52:32.601Z,99419.81
2022-07-25T04:55:04.280Z,99422.66
2022-07-25T04:57:34.498Z,99414.00
2022-07-25T05:00:05.350Z,99411.25
2022-07-25T05:02:36.346Z,99410.56
2022-07-25T05:05:07.167Z,99403.88
2022-07-25T05:07:38.711Z,99407.34
2022-07-25T05:10:09.291Z,99398.41
2022-07-25T05:12:39.686Z,99402.81
2022-07-25T05:15:11.267Z,99420.03
2022-07-25T05:17:41.308Z,99420.78
2022-07-25T05:20:13.779Z,99409.94
2022-07-25T05:22:45.225Z,99414.91
2022-07-25T05:25:15.216Z,99414.91
2022-07-25T05:27:45.562Z,99418.81
2022-07-25T05:30:16.368Z,99412.78
2022-07-25T05:32:46.303Z,99407.88
2022-07-25T05:35:17.430Z,99414.53
2022-07-25T05:37:49.822Z,99400.75
2022-07-25T05:40:19.847Z,99395.97
2022-07-25T05:42:49.787Z,99392.47
2022-07-25T05:45:19.735Z,99382.47
2022-07-25T05:47:49.577Z,99380.81
2022-07-25T05:50:19.656Z,99394.97
2022-07-25T05:52:50.963Z,99387.09
2022-07-25T05:55:21.106Z,99384.31
2022-07-25T05:57:51.090Z,99384.09
2022-07-25T06:00:21.179Z,99381.22
2022-07-25T06:02:51.191Z,99379.19
2022-07-25T06:05:22.451Z,99390.03
2022-07-25T06:07:53.905Z,99381.16
2022-07-25T06:10:24.063Z,99385.72
2022-07-25T06:12:54.283Z,99391.69
2022-07-25T06:15:26.601Z,99396.84
2022-07-25T06:17:57.673Z,99392.34
2022-07-25T06:20:29.664Z,99393.19
2022-07-25T06:23:03.904Z,99383.00
2022-07-25T06:25:34.411Z,99393.44
2022-07-25T06:28:04.873Z,99392.03
2022-07-25T06:30:34.883Z,99389.72
2022-07-25T06:33:04.938Z,99386.47
2022-07-25T06:35:36.801Z,99379.75
2022-07-25T06:38:10.337Z,99379.25
2022-07-25T06:40:40.007Z,99388.53
2022-07-25T06:43:09.887Z,99381.59
2022-07-25T06:45:39.831Z,99380.69
2022-07-25T06:48:11.088Z,99383.13
2022-07-25T06:50:41.291Z,99386.22
2022-07-25T06:53:12.680Z,99376.94
2022-07-25T06:55:42.895Z,99384.97
2022-07-25T06:58:13.042Z,99382.06
2022-07-25T07:00:43.230Z,99382.06
2022-07-25T07:03:13.532Z,99383.78
2022-07-25T07:05:43.422Z,99385.81
2022-07-25T07:08:15.264Z,99384.31
2022-07-25T07:10:45.191Z,99378.41
2022-07-25T07:13:23.874Z,99385.78
2022-07-25T07:15:55.905Z,99389.88
2022-07-25T07:18:25.988Z,99392.88
2022-07-25T07:20:55.857Z,99390.69
2022-07-25T07:23:27.390Z,99392.78
2022-07-25T07:25:59.131Z,99386.16
2022-07-25T07:28:29.308Z,99392.31
2022-07-25T07:31:15.836Z,99397.50
2022-07-25T07:33:47.000Z,99395.06
2022-07-25T07:36:16.919Z,99395.81
2022-07-25T07:38:50.178Z,99399.84
2022-07-25T07:41:20.490Z,99395.53
2022-07-25T07:43:50.614Z,99398.94
2022-07-25T07:46:20.670Z,99400.69
2022-07-25T07:48:50.669Z,99405.19
2022-07-25T07:51:21.140Z,99403.25
2022-07-25T07:54:09.875Z,99406.88
2022-07-25T07:56:39.796Z,99396.41
2022-07-25T07:59:10.547Z,99395.63
2022-07-25T08:01:40.828Z,99401.41
2022-07-25T08:04:11.454Z,99403.31
2022-07-25T08:06:43.247Z,99402.97
2022-07-25T08:09:14.719Z,99407.38
2022-07-25T08:11:45.387Z,99405.00
2022-07-25T08:14:15.905Z,99405.34
2022-07-25T08:16:45.924Z,99408.13
2022-07-25T08:19:16.037Z,99417.00
2022-07-25T08:21:47.144Z,99419.06
2022-07-25T08:24:18.873Z,99415.47
2022-07-25T08:26:48.807Z,99418.50
2022-07-25T08:29:20.668Z,99417.16
2022-07-25T08:31:52.911Z,99417.88
2022-07-25T08:34:22.937Z,99412.38
2022-07-25T08:36:52.789Z,99412.16
2022-07-25T08:39:24.267Z,99421.56
2022-07-25T08:41:54.401Z,99415.06
2022-07-25T08:44:31.068Z,99415.72
2022-07-25T08:47:01.965Z,99424.09
2022-07-25T08:49:32.064Z,99423.50
2022-07-25T08:52:03.837Z,99417.66
2022-07-25T08:54:35.200Z,99414.13
2022-07-25T08:57:05.544Z,99421.47
2022-07-25T08:59:35.513Z,99419.09
2022-07-25T09:02:08.956Z,99409.47
2022-07-25T09:04:38.839Z,99419.66
2022-07-25T09:07:08.931Z,99415.25
2022-07-25T09:09:40.578Z,99411.63
2022-07-25T09:12:11.074Z,99410.81
2022-07-25T09:14:45.460Z,99420.88
2022-07-25T09:17:21.938Z,99413.91
2022-07-25T09:19:54.715Z,99415.38
2022-07-25T09:22:24.890Z,99414.88
2022-07-25T09:24:56.457Z,99420.47
2022-07-25T09:27:26.638Z,99408.88
2022-07-25T09:29:57.083Z,99402.34
2022-07-25T09:32:26.999Z,99403.97
2022-07-25T09:34:56.893Z,99416.38
2022-07-25T09:37:27.964Z,99411.69
2022-07-25T09:39:59.538Z,99414.47
2022-07-25T09:42:32.342Z,99407.34
2022-07-25T09:45:11.502Z,99406.22
2022-07-25T09:47:52.678Z,99411.22
2022-07-25T09:50:24.368Z,99406.53
2022-07-25T09:52:56.664Z,99398.88
2022-07-25T09:55:28.106Z,99386.22
2022-07-25T09:57:58.436Z,99387.59
2022-07-25T10:00:30.328Z,99391.69
2022-07-25T10:03:13.057Z,99391.19
2022-07-25T10:05:52.308Z,99395.06
2022-07-25T10:08:23.571Z,99383.75
2022-07-25T10:10:55.299Z,99382.97
2022-07-25T10:13:35.292Z,99376.91
2022-07-25T10:16:16.978Z,99361.75
2022-07-25T10:18:52.499Z,99375.31
2022-07-25T10:21:27.258Z,99370.03
2022-07-25T10:24:04.135Z,99362.94
2022-07-25T10:26:39.850Z,99364.63
2022-07-25T10:29:11.824Z,99358.31
2022-07-25T10:31:50.467Z,99350.31
2022-07-25T10:34:31.880Z,99356.81
2022-07-25T10:37:11.481Z,99345.53
2022-07-25T10:39:42.779Z,99354.69
2022-07-25T10:42:16.816Z,99355.25
2022-07-25T10:44:49.187Z,99352.22
2022-07-25T10:47:19.398Z,99348.06
2022-07-25T10:50:13.900Z,99341.75
2022-07-25T10:52:43.476Z,99335.69
2022-07-25T10:55:23.863Z,99338.19
2022-07-25T10:58:17.185Z,99335.16
2022-07-25T11:00:47.989Z,99327.97
2022-07-25T11:03:18.710Z,99334.03
2022-07-25T11:05:49.247Z,99334.31
2022-07-25T11:08:22.181Z,99326.34
2022-07-25T11:10:53.864Z,99324.13
2022-07-25T11:13:26.066Z,99323.88
2022-07-25T11:15:58.966Z,99323.31
2022-07-25T11:18:36.592Z,99319.19
2022-07-25T11:21:08.567Z,99324.13
2022-07-25T11:23:38.553Z,99316.16
2022-07-25T11:26:10.361Z,99303.47
2022-07-25T11:28:45.826Z,99312.88
2022-07-25T11:31:17.219Z,99299.38
2022-07-25T11:33:50.525Z,99311.22
2022-07-25T11:36:21.389Z,99297.97
2022-07-25T11:38:51.745Z,99296.03
2022-07-25T11:41:29.799Z,99297.41
2022-07-25T11:44:01.230Z,99296.88
2022-07-25T11:46:31.434Z,99283.38
2022-07-25T11:49:08.671Z,99281.19
2022-07-25T11:51:39.957Z,99283.09
2022-07-25T11:54:11.810Z,99280.34
2022-07-25T11:56:43.440Z,99273.72
2022-07-25T11:59:15.290Z,99280.34
2022-07-25T12:01:45.491Z,99274.81
2022-07-25T12:04:18.295Z,99267.09
2022-07-25T12:06:50.041Z,99268.19
2022-07-25T12:09:22.297Z,99276.72
2022-07-25T12:12:03.683Z,99250.28
2022-07-25T12:14:44.909Z,99258.25
2022-07-25T12:17:15.072Z,99257.41
2022-07-25T12:19:47.151Z,99255.47
2022-07-25T12:22:17.214Z,99253.84
2022-07-25T12:24:47.163Z,99257.16
2022-07-25T12:27:17.080Z,99251.69
2022-07-25T12:29:49.333Z,99243.66
2022-07-25T12:32:19.250Z,99251.94
2022-07-25T12:34:49.295Z,99246.13
2022-07-25T12:37:21.733Z,99235.69
2022-07-25T12:39:51.787Z,99242.81
2022-07-25T12:42:21.937Z,99226.84
2022-07-25T12:44:53.340Z,99237.56
2022-07-25T12:47:23.367Z,99234.53
2022-07-25T12:49:53.281Z,99240.63
2022-07-25T12:52:23.589Z,99230.69
2022-07-25T12:54:53.871Z,99220.75
2022-07-25T12:57:24.681Z,99216.34
2022-07-25T12:59:56.533Z,99217.75
2022-07-25T13:02:26.822Z,99223.81
2022-07-25T13:04:56.949Z,99215.53
2022-07-25T13:07:27.075Z,99214.19
2022-07-25T13:09:57.391Z,99214.47
2022-07-25T13:12:28.070Z,99210.91
2022-07-25T13:14:59.782Z,99217.53
2022-07-25T13:17:29.830Z,99216.13
2022-07-25T13:20:00.188Z,99215.56
2022-07-25T13:22:30.278Z,99212.00
2022-07-25T13:25:00.295Z,99209.53
2022-07-25T13:27:30.211Z,99210.34
2022-07-25T13:30:01.557Z,99192.19
2022-07-25T13:32:31.884Z,99198.78
2022-07-25T13:35:02.391Z,99196.28
2022-07-25T13:37:33.488Z,99201.25
2022-07-25T13:40:03.577Z,99201.25
2022-07-25T13:42:33.436Z,99197.13
2022-07-25T13:45:04.992Z,99196.84
2022-07-25T13:47:35.900Z,99190.25
2022-07-25T13:50:06.610Z,99182.50
2022-07-25T13:52:37.783Z,99179.50
2022-07-25T13:55:10.437Z,99177.03
2022-07-25T13:57:40.417Z,99170.69
2022-07-25T14:00:13.548Z,99179.50
2022-07-25T14:02:44.340Z,99178.69
2022-07-25T14:05:14.784Z,99172.91
2022-07-25T14:07:44.759Z,99172.34
2022-07-25T14:10:14.812Z,99161.38
2022-07-25T14:12:45.238Z,99165.22
2022-07-25T14:15:17.707Z,99163.00
2022-07-25T14:17:48.107Z,99158.06
2022-07-25T14:20:18.065Z,99152.53
2022-07-25T14:22:48.365Z,99156.94
2022-07-25T14:25:18.330Z,99157.50
2022-07-25T14:27:49.150Z,99149.56
2022-07-25T14:30:20.523Z,99151.44
2022-07-25T14:32:50.532Z,99155.25
2022-07-25T14:35:20.921Z,99159.09
2022-07-25T14:37:50.996Z,99148.91
2022-07-25T14:40:20.974Z,99153.38
2022-07-25T14:42:50.992Z,99147.03
2022-07-25T14:45:23.064Z,99145.59
2022-07-25T14:47:54.068Z,99142.34
2022-07-25T14:50:24.456Z,99144.84
2022-07-25T14:52:54.613Z,99143.22
2022-07-25T14:55:25.965Z,99139.13
2022-07-25T14:57:58.094Z,99141.59
2022-07-25T15:00:30.006Z,99131.69
2022-07-25T15:03:00.289Z,99136.66
2022-07-25T15:05:30.810Z,99138.03
2022-07-25T15:08:01.161Z,99140.50
2022-07-25T15:10:31.285Z,99140.50
2022-07-25T15:13:29.370Z,99143.25
2022-07-25T15:15:54.673Z,99135.53
2022-07-25T15:18:24.927Z,99130.59
2022-07-25T15:21:05.386Z,99127.56
2022-07-25T15:23:35.493Z,99130.59
2022-07-25T15:26:06.368Z,99106.09
2022-07-25T15:28:39.086Z,99115.72
2022-07-25T15:31:10.702Z,99123.44
2022-07-25T15:33:41.041Z,99129.50
2022-07-25T15:36:11.540Z,99121.25
2022-07-25T15:38:41.831Z,99126.19
2022-07-25T15:41:12.312Z,99119.03
2022-07-25T15:43:42.415Z,99131.72
2022-07-25T15:46:18.005Z,99121.75
2022-07-25T15:48:48.439Z,99122.88
2022-07-25T15:51:19.001Z,99126.16
2022-07-25T15:53:49.177Z,99125.06
2022-07-25T15:56:19.488Z,99132.50
2022-07-25T15:58:50.420Z,99127.84
2022-07-25T16:01:22.273Z,99128.13
2022-07-25T16:03:52.662Z,99120.13
2022-07-25T16:06:23.714Z,99127.84
2022-07-25T16:08:54.248Z,99124.00
2022-07-25T16:11:24.417Z,99125.63
2022-07-25T16:13:55.110Z,99116.56
2022-07-25T16:16:27.249Z,99124.53
2022-07-25T16:18:58.982Z,99125.34
2022-07-25T16:21:29.145Z,99125.94
2022-07-25T16:23:59.448Z,99119.03
2022-07-25T16:26:29.561Z,99119.59
2022-07-25T16:29:02.685Z,99129.22
2022-07-25T16:31:35.066Z,99129.19
2022-07-25T16:34:05.608Z,99133.31
2022-07-25T16:36:36.882Z,99130.88
2022-07-25T16:39:07.268Z,99128.66
2022-07-25T16:41:37.797Z,99139.41
2022-07-25T16:44:07.982Z,99142.69
2022-07-25T16:46:39.654Z,99136.34
2022-07-25T16:49:10.575Z,99135.50
2022-07-25T16:51:41.088Z,99136.31
2022-07-25T16:54:11.573Z,99144.28
2022-07-25T16:56:42.455Z,99147.84
2022-07-25T16:59:12.726Z,99145.06
2022-07-25T17:01:46.658Z,99150.81
2022-07-25T17:04:16.887Z,99150.28
2022-07-25T17:06:49.350Z,99155.78
2022-07-25T17:09:19.643Z,99148.63
2022-07-25T17:11:50.306Z,99163.97
2022-07-25T17:14:22.267Z,99166.69
2022-07-25T17:16:55.406Z,99163.13
2022-07-25T17:19:25.788Z,99162.81
2022-07-25T17:21:56.074Z,99157.06
2022-07-25T17:24:26.476Z,99174.03
2022-07-25T17:26:56.888Z,99167.50
2022-07-25T17:29:27.685Z,99160.28
2022-07-25T17:31:59.710Z,99168.81
2022-07-25T17:34:30.066Z,99175.34
2022-07-25T17:37:03.231Z,99167.91
2022-07-25T17:39:34.470Z,99179.97
2022-07-25T17:42:07.489Z,99176.94
2022-07-25T17:44:37.727Z,99176.91
2022-07-25T17:47:09.325Z,99182.41
2022-07-25T17:49:39.594Z,99176.31
2022-07-25T17:52:12.442Z,99183.97
2022-07-25T17:54:42.538Z,99184.78
2022-07-25T17:57:12.763Z,99189.47
2022-07-25T17:59:42.988Z,99193.00
2022-07-25T18:02:14.546Z,99194.09
2022-07-25T18:04:45.142Z,99198.16
2022-07-25T18:07:15.423Z,99196.22
2022-07-25T18:09:45.475Z,99203.38
2022-07-25T18:12:15.723Z,99206.88
2022-07-25T18:14:49.222Z,99207.16
2022-07-25T18:17:21.986Z,99211.53
2022-07-25T18:19:52.170Z,99205.69
2022-07-25T18:22:22.342Z,99212.25
2022-07-25T18:24:52.560Z,99209.44
2022-07-25T18:27:22.939Z,99213.03
2022-07-25T18:29:53.081Z,99206.69
2022-07-25T18:32:24.548Z,99215.78
2022-07-25T18:34:54.732Z,99220.41
2022-07-25T18:37:25.292Z,99223.69
2022-07-25T18:39:55.498Z,99225.06
2022-07-25T18:42:29.743Z,99219.56
2022-07-25T18:45:00.387Z,99231.38
2022-07-25T18:47:33.941Z,99243.94
2022-07-25T18:50:04.266Z,99240.66
2022-07-25T18:52:36.472Z,99241.63
2022-07-25T18:55:09.123Z,99236.34
2022-07-25T18:57:39.548Z,99248.72
2022-07-25T19:00:12.034Z,99250.38
2022-07-25T19:02:43.607Z,99247.31
2022-07-25T19:05:13.957Z,99246.75
2022-07-25T19:07:45.041Z,99249.44
2022-07-25T19:10:15.628Z,99251.34
2022-07-25T19:12:46.571Z,99251.34
2022-07-25T19:15:18.352Z,99255.09
2022-07-25T19:17:49.965Z,99257.84
2022-07-25T19:20:22.576Z,99258.09
2022-07-25T19:22:53.040Z,99259.19
2022-07-25T19:25:23.544Z,99260.84
2022-07-25T19:27:54.167Z,99267.16
2022-07-25T19:30:24.293Z,99273.94
2022-07-25T19:32:55.824Z,99273.34
2022-07-25T19:35:26.545Z,99276.22
2022-07-25T19:37:56.807Z,99281.88
2022-07-25T19:40:26.883Z,99277.88
2022-07-25T19:42:57.001Z,99283.88
2022-07-25T19:45:27.046Z,99289.03
2022-07-25T19:47:58.589Z,99283.03
2022-07-25T19:50:29.077Z,99286.53
2022-07-25T19:52:59.191Z,99288.72
2022-07-25T19:55:29.399Z,99298.09
2022-07-25T19:57:59.583Z,99293.69
2022-07-25T20:00:29.919Z,99296.69
2022-07-25T20:03:01.637Z,99296.56
2022-07-25T20:05:32.256Z,99299.47
2022-07-25T20:08:02.713Z,99311.00
2022-07-25T20:10:32.891Z,99310.50
2022-07-25T20:13:03.804Z,99311.84
2022-07-25T20:15:34.504Z,99311.25
2022-07-25T20:18:06.034Z,99314.84
2022-07-25T20:20:36.341Z,99317.56
2022-07-25T20:23:06.387Z,99316.16
2022-07-25T20:25:37.648Z,99314.19
2022-07-25T20:28:08.163Z,99313.53
2022-07-25T20:30:38.367Z,99320.69
2022-07-25T20:33:10.167Z,99318.63
2022-07-25T20:35:40.337Z,99320.00
2022-07-25T20:38:11.013Z,99316.34
2022-07-25T20:40:46.273Z,99317.41
2022-07-25T20:43:16.646Z,99317.16
2022-07-25T20:45:48.005Z,99320.59
2022-07-25T20:48:19.618Z,99311.47
2022-07-25T20:50:49.999Z,99311.72
2022-07-25T20:53:20.383Z,99313.78
2022-07-25T20:55:50.879Z,99315.53
2022-07-25T20:58:21.444Z,99309.22
2022-07-25T21:00:51.568Z,99314.03
2022-07-25T21:03:25.758Z,99315.69
2022-07-25T21:05:55.980Z,99315.19
2022-07-25T21:08:26.213Z,99319.09
2022-07-25T21:10:56.347Z,99316.34
2022-07-25T21:13:26.922Z,99321.03
2022-07-25T21:16:01.376Z,99326.41
2022-07-25T21:18:32.881Z,99327.72
2022-07-25T21:21:03.248Z,99322.19
2022-07-25T21:23:33.558Z,99321.81
2022-07-25T21:26:04.756Z,99322.69
2022-07-25T21:28:35.109Z,99336.88
2022-07-25T21:31:05.181Z,99330.06
2022-07-25T21:33:36.638Z,99343.31
2022-07-25T21:36:07.580Z,99335.53
2022-07-25T21:38:38.597Z,99338.13
2022-07-25T21:41:09.495Z,99334.94
2022-07-25T21:43:39.586Z,99339.09
2022-07-25T21:46:09.710Z,99347.03
2022-07-25T21:48:58.493Z,99342.06
2022-07-25T21:51:38.186Z,99350.16
2022-07-25T21:54:13.089Z,99353.13
2022-07-25T21:56:43.257Z,99349.47
2022-07-25T21:59:13.641Z,99353.31
2022-07-25T22:01:44.379Z,99346.97
2022-07-25T22:04:15.918Z,99354.69
2022-07-25T22:06:45.818Z,99358.78
2022-07-25T22:09:15.915Z,99351.19
2022-07-25T22:11:46.929Z,99356.31
2022-07-25T22:14:17.767Z,99349.44
2022-07-25T22:16:47.996Z,99356.91
2022-07-25T22:19:22.329Z,99347.78
2022-07-25T22:21:52.935Z,99352.25
2022-07-25T22:24:22.859Z,99358.09
2022-07-25T22:26:52.751Z,99353.88
2022-07-25T22:29:22.745Z,99343.31
2022-07-25T22:31:52.932Z,99349.97
2022-07-25T22:34:24.409Z,99350.56
2022-07-25T22:36:54.434Z,99354.47
2022-07-25T22:39:24.909Z,99328.75
2022-07-25T22:41:54.827Z,99347.91
2022-07-25T22:44:24.963Z,99352.56
2022-07-25T22:46:54.823Z,99355.47
2022-07-25T22:49:26.316Z,99352.34
2022-07-25T22:51:56.256Z,99350.56
2022-07-25T22:54:26.791Z,99354.50
2022-07-25T22:56:56.714Z,99358.56
2022-07-25T22:59:26.889Z,99345.22
2022-07-25T23:01:56.849Z,99347.16
2022-07-25T23:04:28.237Z,99345.50
2022-07-25T23:06:59.055Z,99337.78
2022-07-25T23:09:36.055Z,99334.19
2022-07-25T23:12:07.511Z,99338.72
2022-07-25T23:14:38.428Z,99342.66
2022-07-25T23:17:21.027Z,99337.78
2022-07-25T23:19:54.467Z,99337.19
2022-07-25T23:22:26.783Z,99342.53
2022-07-25T23:24:57.196Z,99331.47
2022-07-25T23:27:27.939Z,99324.09
2022-07-25T23:30:03.878Z,99324.59
2022-07-25T23:32:33.921Z,99323.66
2022-07-25T23:35:06.033Z,99330.28
2022-07-25T23:37:35.953Z,99323.38
2022-07-25T23:40:07.391Z,99323.38
2022-07-25T23:42:37.219Z,99318.63
2022-07-25T23:45:08.230Z,99314.22
2022-07-25T23:47:40.605Z,99322.19
2022-07-25T23:50:12.646Z,99316.13
2022-07-25T23:52:42.515Z,99323.72
2022-07-25T23:55:12.386Z,99316.00
2022-07-25T23:57:42.234Z,99307.00
